sensor_id;sensor_type;location;lat;lon;timestamp;pressure;altitude;pressure_sealevel;temperature;humidity
10587;BME280;5341;47.606;7.576;2022-08-19T00:01:57;98465.28;;;24.00;60.54
10587;BME280;5341;47.606;7.576;2022-08-19T00:04:28;98464.47;;;23.99;60.51
10587;BME280;5341;47.606;7.576;2022-08-19T00:06:57;98462.78;;;23.98;60.53
10587;BME280;5341;47.606;7.576;2022-08-19T00:09:25;98472.91;;;23.97;60.64
10587;BME280;5341;47.606;7.576;2022-08-19T00:11:55;98468.53;;;23.96;60.70
10587;BME280;5341;47.606;7.576;2022-08-19T00:14:24;98466.91;;;23.95;60.73
10587;BME280;5341;47.606;7.576;2022-08-19T00:16:53;98465.00;;;23.96;60.62
10587;BME280;5341;47.606;7.576;2022-08-19T00:19:22;98463.34;;;23.95;60.61
10587;BME280;5341;47.606;7.576;2022-08-19T00:21:50;98453.53;;;23.94;60.67
10587;BME280;5341;47.606;7.576;2022-08-19T00:24:18;98451.59;;;23.94;60.60
10587;BME280;5341;47.606;7.576;2022-08-19T00:26:46;98461.72;;;23.94;60.60
10587;BME280;5341;47.606;7.576;2022-08-19T00:29:17;98453.81;;;23.92;60.66
10587;BME280;5341;47.606;7.576;2022-08-19T00:31:46;98456.81;;;23.91;60.81
10587;BME280;5341;47.606;7.576;2022-08-19T00:34:14;98465.00;;;23.91;60.77
10587;BME280;5341;47.606;7.576;2022-08-19T00:36:42;98461.75;;;23.89;60.67
10587;BME280;5341;47.606;7.576;2022-08-19T00:39:10;98463.94;;;23.87;60.73
10587;BME280;5341;47.606;7.576;2022-08-19T00:41:39;98460.34;;;23.86;60.96
10587;BME280;5341;47.606;7.576;2022-08-19T00:44:09;98457.09;;;23.84;60.92
10587;BME280;5341;47.606;7.576;2022-08-19T00:46:42;98467.19;;;23.84;61.00
10587;BME280;5341;47.606;7.576;2022-08-19T00:49:12;98453.00;;;23.82;60.95
10587;BME280;5341;47.606;7.576;2022-08-19T00:51:42;98459.28;;;23.82;60.97
10587;BME280;5341;47.606;7.576;2022-08-19T00:54:12;98456.56;;;23.82;60.78
10587;BME280;5341;47.606;7.576;2022-08-19T00:56:40;98465.56;;;23.83;61.00
10587;BME280;5341;47.606;7.576;2022-08-19T00:59:09;98460.09;;;23.83;60.98
10587;BME280;5341;47.606;7.576;2022-08-19T01:01:39;98456.56;;;23.82;60.89
10587;BME280;5341;47.606;7.576;2022-08-19T01:04:08;98460.38;;;23.81;61.00
10587;BME280;5341;47.606;7.576;2022-08-19T01:06:36;98463.09;;;23.81;60.93
10587;BME280;5341;47.606;7.576;2022-08-19T01:09:05;98456.28;;;23.79;61.09
10587;BME280;5341;47.606;7.576;2022-08-19T01:11:40;98459.59;;;23.76;61.30
10587;BME280;5341;47.606;7.576;2022-08-19T01:14:09;98459.56;;;23.71;61.59
10587;BME280;5341;47.606;7.576;2022-08-19T01:16:38;98455.75;;;23.66;61.56
10587;BME280;5341;47.606;7.576;2022-08-19T01:19:12;98450.28;;;23.61;62.05
10587;BME280;5341;47.606;7.576;2022-08-19T01:21:47;98444.00;;;23.56;62.07
10587;BME280;5341;47.606;7.576;2022-08-19T01:24:20;98452.47;;;23.54;62.41
10587;BME280;5341;47.606;7.576;2022-08-19T01:26:48;98451.38;;;23.45;63.10
10587;BME280;5341;47.606;7.576;2022-08-19T01:29:15;98451.09;;;23.42;62.94
10587;BME280;5341;47.606;7.576;2022-08-19T01:31:43;98451.94;;;23.42;62.88
10587;BME280;5341;47.606;7.576;2022-08-19T01:34:11;98451.09;;;23.36;63.14
10587;BME280;5341;47.606;7.576;2022-08-19T01:36:41;98444.81;;;23.31;63.20
10587;BME280;5341;47.606;7.576;2022-08-19T01:39:13;98439.91;;;23.33;62.96
10587;BME280;5341;47.606;7.576;2022-08-19T01:41:42;98447.81;;;23.34;62.96
10587;BME280;5341;47.606;7.576;2022-08-19T01:44:10;98450.56;;;23.34;63.09
10587;BME280;5341;47.606;7.576;2022-08-19T01:46:38;98449.19;;;23.37;62.65
10587;BME280;5341;47.606;7.576;2022-08-19T01:49:06;98445.66;;;23.42;62.84
10587;BME280;5341;47.606;7.576;2022-08-19T01:51:34;98445.09;;;23.45;62.53
10587;BME280;5341;47.606;7.576;2022-08-19T01:54:03;98451.91;;;23.47;62.51
10587;BME280;5341;47.606;7.576;2022-08-19T01:56:30;98445.34;;;23.48;62.39
10587;BME280;5341;47.606;7.576;2022-08-19T01:59:03;98447.81;;;23.50;62.33
10587;BME280;5341;47.606;7.576;2022-08-19T02:01:31;98450.28;;;23.51;62.27
10587;BME280;5341;47.606;7.576;2022-08-19T02:03:59;98459.84;;;23.54;62.29
10587;BME280;5341;47.606;7.576;2022-08-19T02:06:27;98460.66;;;23.54;62.13
10587;BME280;5341;47.606;7.576;2022-08-19T02:08:55;98446.72;;;23.56;62.14
10587;BME280;5341;47.606;7.576;2022-08-19T02:11:25;98448.38;;;23.57;62.23
10587;BME280;5341;47.606;7.576;2022-08-19T02:13:53;98453.56;;;23.58;61.89
10587;BME280;5341;47.606;7.576;2022-08-19T02:16:23;98450.84;;;23.58;61.90
10587;BME280;5341;47.606;7.576;2022-08-19T02:18:51;98441.84;;;23.58;62.03
10587;BME280;5341;47.606;7.576;2022-08-19T02:21:20;98451.66;;;23.59;61.81
10587;BME280;5341;47.606;7.576;2022-08-19T02:23:48;98453.31;;;23.60;61.83
10587;BME280;5341;47.606;7.576;2022-08-19T02:26:16;98456.31;;;23.58;61.75
10587;BME280;5341;47.606;7.576;2022-08-19T02:28:44;98447.84;;;23.60;61.71
10587;BME280;5341;47.606;7.576;2022-08-19T02:31:13;98449.75;;;23.59;61.76
10587;BME280;5341;47.606;7.576;2022-08-19T02:33:43;98450.56;;;23.60;61.88
10587;BME280;5341;47.606;7.576;2022-08-19T02:36:12;98447.84;;;23.60;61.79
10587;BME280;5341;47.606;7.576;2022-08-19T02:38:40;98453.31;;;23.60;61.73
10587;BME280;5341;47.606;7.576;2022-08-19T02:41:12;98444.28;;;23.59;61.75
10587;BME280;5341;47.606;7.576;2022-08-19T02:43:40;98438.84;;;23.59;61.60
10587;BME280;5341;47.606;7.576;2022-08-19T02:46:13;98436.09;;;23.59;61.53
10587;BME280;5341;47.606;7.576;2022-08-19T02:48:43;98438.00;;;23.59;61.72
10587;BME280;5341;47.606;7.576;2022-08-19T02:51:16;98452.47;;;23.59;61.66
10587;BME280;5341;47.606;7.576;2022-08-19T02:53:44;98452.75;;;23.58;61.71
10587;BME280;5341;47.606;7.576;2022-08-19T02:56:12;98462.84;;;23.57;61.70
10587;BME280;5341;47.606;7.576;2022-08-19T02:58:40;98462.00;;;23.57;61.72
10587;BME280;5341;47.606;7.576;2022-08-19T03:01:09;98451.91;;;23.57;61.56
10587;BME280;5341;47.606;7.576;2022-08-19T03:03:38;98453.81;;;23.57;61.56
10587;BME280;5341;47.606;7.576;2022-08-19T03:06:10;98452.19;;;23.56;61.68
10587;BME280;5341;47.606;7.576;2022-08-19T03:08:40;98452.19;;;23.56;61.52
10587;BME280;5341;47.606;7.576;2022-08-19T03:11:13;98452.47;;;23.54;61.62
10587;BME280;5341;47.606;7.576;2022-08-19T03:13:41;98452.19;;;23.56;61.51
10587;BME280;5341;47.606;7.576;2022-08-19T03:16:10;98457.94;;;23.54;61.47
10587;BME280;5341;47.606;7.576;2022-08-19T03:18:38;98468.03;;;23.54;61.51
10587;BME280;5341;47.606;7.576;2022-08-19T03:21:08;98462.84;;;23.52;61.60
10587;BME280;5341;47.606;7.576;2022-08-19T03:23:35;98466.66;;;23.51;61.44
10587;BME280;5341;47.606;7.576;2022-08-19T03:26:05;98469.41;;;23.51;61.45
10587;BME280;5341;47.606;7.576;2022-08-19T03:28:33;98473.22;;;23.50;61.57
10587;BME280;5341;47.606;7.576;2022-08-19T03:31:05;98469.66;;;23.50;61.49
10587;BME280;5341;47.606;7.576;2022-08-19T03:33:33;98483.28;;;23.50;61.54
10587;BME280;5341;47.606;7.576;2022-08-19T03:36:04;98485.22;;;23.49;61.46
10587;BME280;5341;47.606;7.576;2022-08-19T03:38:36;98481.94;;;23.47;61.47
10587;BME280;5341;47.606;7.576;2022-08-19T03:41:06;98473.75;;;23.47;61.43
10587;BME280;5341;47.606;7.576;2022-08-19T03:43:35;98467.47;;;23.47;61.57
10587;BME280;5341;47.606;7.576;2022-08-19T03:46:05;98465.84;;;23.46;61.54
10587;BME280;5341;47.606;7.576;2022-08-19T03:48:33;98475.13;;;23.45;61.47
10587;BME280;5341;47.606;7.576;2022-08-19T03:51:02;98470.75;;;23.44;61.54
10587;BME280;5341;47.606;7.576;2022-08-19T03:53:32;98469.94;;;23.43;61.43
10587;BME280;5341;47.606;7.576;2022-08-19T03:56:01;98463.66;;;23.43;61.52
10587;BME280;5341;47.606;7.576;2022-08-19T03:58:29;98457.38;;;23.42;61.58
10587;BME280;5341;47.606;7.576;2022-08-19T04:00:57;98457.66;;;23.41;61.48
10587;BME280;5341;47.606;7.576;2022-08-19T04:03:25;98462.31;;;23.40;61.51
10587;BME280;5341;47.606;7.576;2022-08-19T04:05:53;98463.41;;;23.39;61.75
10587;BME280;5341;47.606;7.576;2022-08-19T04:08:21;98471.59;;;23.39;61.53
10587;BME280;5341;47.606;7.576;2022-08-19T04:10:49;98477.03;;;23.39;61.64
10587;BME280;5341;47.606;7.576;2022-08-19T04:13:18;98470.50;;;23.40;61.58
10587;BME280;5341;47.606;7.576;2022-08-19T04:15:46;98479.78;;;23.39;61.51
10587;BME280;5341;47.606;7.576;2022-08-19T04:18:14;98482.50;;;23.39;61.56
10587;BME280;5341;47.606;7.576;2022-08-19T04:20:42;98485.22;;;23.39;61.58
10587;BME280;5341;47.606;7.576;2022-08-19T04:23:17;98491.75;;;23.38;61.64
10587;BME280;5341;47.606;7.576;2022-08-19T04:25:47;98486.28;;;23.38;61.76
10587;BME280;5341;47.606;7.576;2022-08-19T04:28:15;98490.94;;;23.37;61.59
10587;BME280;5341;47.606;7.576;2022-08-19T04:30:47;98489.28;;;23.36;61.80
10587;BME280;5341;47.606;7.576;2022-08-19T04:33:17;98483.84;;;23.31;62.01
10587;BME280;5341;47.606;7.576;2022-08-19T04:35:47;98488.75;;;23.29;61.93
10587;BME280;5341;47.606;7.576;2022-08-19T04:38:15;98488.75;;;23.29;61.90
10587;BME280;5341;47.606;7.576;2022-08-19T04:40:48;98488.75;;;23.29;61.95
10587;BME280;5341;47.606;7.576;2022-08-19T04:43:35;98499.69;;;23.29;61.97
10587;BME280;5341;47.606;7.576;2022-08-19T04:46:06;98496.94;;;23.29;61.77
10587;BME280;5341;47.606;7.576;2022-08-19T04:48:34;98499.41;;;23.31;61.82
10587;BME280;5341;47.606;7.576;2022-08-19T04:51:07;98492.03;;;23.31;61.71
10587;BME280;5341;47.606;7.576;2022-08-19T04:53:38;98492.84;;;23.32;61.75
10587;BME280;5341;47.606;7.576;2022-08-19T04:56:09;98492.03;;;23.31;61.77
10587;BME280;5341;47.606;7.576;2022-08-19T04:58:41;98499.94;;;23.33;61.62
10587;BME280;5341;47.606;7.576;2022-08-19T05:01:11;98494.47;;;23.33;61.49
10587;BME280;5341;47.606;7.576;2022-08-19T05:03:39;98499.13;;;23.32;61.63
10587;BME280;5341;47.606;7.576;2022-08-19T05:06:09;98498.84;;;23.34;61.47
10587;BME280;5341;47.606;7.576;2022-08-19T05:08:39;98499.13;;;23.32;61.48
10587;BME280;5341;47.606;7.576;2022-08-19T05:11:10;98507.31;;;23.32;61.67
10587;BME280;5341;47.606;7.576;2022-08-19T05:13:38;98505.69;;;23.31;61.65
10587;BME280;5341;47.606;7.576;2022-08-19T05:16:06;98513.84;;;23.31;61.59
10587;BME280;5341;47.606;7.576;2022-08-19T05:18:35;98518.22;;;23.32;61.70
10587;BME280;5341;47.606;7.576;2022-08-19T05:21:20;98518.22;;;23.32;61.63
10587;BME280;5341;47.606;7.576;2022-08-19T05:24:06;98513.03;;;23.31;61.55
10587;BME280;5341;47.606;7.576;2022-08-19T05:26:34;98520.41;;;23.30;61.66
10587;BME280;5341;47.606;7.576;2022-08-19T05:29:03;98521.22;;;23.31;61.53
10587;BME280;5341;47.606;7.576;2022-08-19T05:31:31;98524.78;;;23.31;61.40
10587;BME280;5341;47.606;7.576;2022-08-19T05:34:02;98525.59;;;23.32;61.62
10587;BME280;5341;47.606;7.576;2022-08-19T05:36:34;98523.97;;;23.31;61.58
10587;BME280;5341;47.606;7.576;2022-08-19T05:39:04;98541.16;;;23.31;61.57
10587;BME280;5341;47.606;7.576;2022-08-19T05:41:31;98550.16;;;23.32;61.56
10587;BME280;5341;47.606;7.576;2022-08-19T05:44:03;98547.44;;;23.32;61.65
10587;BME280;5341;47.606;7.576;2022-08-19T05:46:32;98544.69;;;23.32;61.54
10587;BME280;5341;47.606;7.576;2022-08-19T05:49:02;98543.88;;;23.31;61.58
10587;BME280;5341;47.606;7.576;2022-08-19T05:51:30;98546.59;;;23.31;61.53
10587;BME280;5341;47.606;7.576;2022-08-19T05:53:58;98546.59;;;23.31;61.64
10587;BME280;5341;47.606;7.576;2022-08-19T05:56:26;98543.88;;;23.31;61.60
10587;BME280;5341;47.606;7.576;2022-08-19T05:58:53;98544.69;;;23.32;61.56
10587;BME280;5341;47.606;7.576;2022-08-19T06:01:21;98552.06;;;23.31;61.64
10587;BME280;5341;47.606;7.576;2022-08-19T06:03:49;98543.06;;;23.31;61.57
10587;BME280;5341;47.606;7.576;2022-08-19T06:06:19;98545.78;;;23.31;61.57
10587;BME280;5341;47.606;7.576;2022-08-19T06:08:47;98546.06;;;23.29;61.67
10587;BME280;5341;47.606;7.576;2022-08-19T06:11:19;98550.44;;;23.30;61.57
10587;BME280;5341;47.606;7.576;2022-08-19T06:13:50;98556.69;;;23.31;61.58
10587;BME280;5341;47.606;7.576;2022-08-19T06:16:21;98562.16;;;23.31;61.62
10587;BME280;5341;47.606;7.576;2022-08-19T06:18:52;98570.34;;;23.31;61.58
10587;BME280;5341;47.606;7.576;2022-08-19T06:21:25;98567.63;;;23.31;61.51
10587;BME280;5341;47.606;7.576;2022-08-19T06:23:55;98567.63;;;23.31;61.63
10587;BME280;5341;47.606;7.576;2022-08-19T06:26:24;98566.81;;;23.30;61.66
10587;BME280;5341;47.606;7.576;2022-08-19T06:28:52;98575.00;;;23.30;61.53
10587;BME280;5341;47.606;7.576;2022-08-19T06:31:23;98568.72;;;23.30;61.54
10587;BME280;5341;47.606;7.576;2022-08-19T06:33:52;98566.81;;;23.30;61.66
10587;BME280;5341;47.606;7.576;2022-08-19T06:36:24;98572.81;;;23.32;61.69
10587;BME280;5341;47.606;7.576;2022-08-19T06:38:53;98563.53;;;23.33;61.63
10587;BME280;5341;47.606;7.576;2022-08-19T06:41:20;98568.97;;;23.33;61.71
10587;BME280;5341;47.606;7.576;2022-08-19T06:43:48;98570.63;;;23.34;61.61
10587;BME280;5341;47.606;7.576;2022-08-19T06:46:17;98574.44;;;23.33;61.56
10587;BME280;5341;47.606;7.576;2022-08-19T06:48:46;98577.16;;;23.33;61.69
10587;BME280;5341;47.606;7.576;2022-08-19T06:51:15;98571.44;;;23.35;61.73
10587;BME280;5341;47.606;7.576;2022-08-19T06:53:46;98567.88;;;23.34;61.79
10587;BME280;5341;47.606;7.576;2022-08-19T06:56:15;98566.25;;;23.33;62.39
10587;BME280;5341;47.606;7.576;2022-08-19T06:58:43;98573.63;;;23.28;62.73
10587;BME280;5341;47.606;7.576;2022-08-19T07:01:13;98573.31;;;23.14;63.82
10587;BME280;5341;47.606;7.576;2022-08-19T07:03:41;98568.66;;;23.09;63.57
10587;BME280;5341;47.606;7.576;2022-08-19T07:06:11;98576.56;;;23.11;63.31
10587;BME280;5341;47.606;7.576;2022-08-19T07:08:41;98566.78;;;23.15;63.09
10587;BME280;5341;47.606;7.576;2022-08-19T07:11:11;98568.13;;;23.18;63.30
10587;BME280;5341;47.606;7.576;2022-08-19T07:13:40;98568.97;;;23.18;63.16
10587;BME280;5341;47.606;7.576;2022-08-19T07:16:12;98576.59;;;23.21;63.27
10587;BME280;5341;47.606;7.576;2022-08-19T07:18:41;98580.13;;;23.22;63.20
10587;BME280;5341;47.606;7.576;2022-08-19T07:21:11;98588.88;;;23.24;63.18
10587;BME280;5341;47.606;7.576;2022-08-19T07:23:40;98592.16;;;23.26;63.22
10587;BME280;5341;47.606;7.576;2022-08-19T07:26:09;98591.91;;;23.27;63.14
10587;BME280;5341;47.606;7.576;2022-08-19T07:28:39;98596.28;;;23.28;63.88
10587;BME280;5341;47.606;7.576;2022-08-19T07:31:10;98597.38;;;23.27;63.52
10587;BME280;5341;47.606;7.576;2022-08-19T07:33:38;98605.28;;;23.29;63.47
10587;BME280;5341;47.606;7.576;2022-08-19T07:36:09;98612.09;;;23.31;63.36
10587;BME280;5341;47.606;7.576;2022-08-19T07:38:40;98609.91;;;23.33;63.29
10587;BME280;5341;47.606;7.576;2022-08-19T07:41:09;98613.19;;;23.35;63.27
10587;BME280;5341;47.606;7.576;2022-08-19T07:43:40;98611.56;;;23.34;64.33
10587;BME280;5341;47.606;7.576;2022-08-19T07:46:09;98606.91;;;23.30;63.78
10587;BME280;5341;47.606;7.576;2022-08-19T07:48:39;98611.00;;;23.32;63.91
10587;BME280;5341;47.606;7.576;2022-08-19T07:51:08;98603.06;;;23.26;64.65
10587;BME280;5341;47.606;7.576;2022-08-19T07:53:37;98607.69;;;23.25;64.49
10587;BME280;5341;47.606;7.576;2022-08-19T07:56:05;98600.91;;;23.28;64.11
10587;BME280;5341;47.606;7.576;2022-08-19T07:58:37;98617.56;;;23.31;64.08
10587;BME280;5341;47.606;7.576;2022-08-19T08:01:08;98610.72;;;23.34;64.20
10587;BME280;5341;47.606;7.576;2022-08-19T08:03:36;98612.66;;;23.28;65.70
10587;BME280;5341;47.606;7.576;2022-08-19T08:06:21;98606.56;;;23.11;66.60
10587;BME280;5341;47.606;7.576;2022-08-19T08:09:07;98617.69;;;22.99;67.74
10587;BME280;5341;47.606;7.576;2022-08-19T08:11:38;98620.41;;;22.94;67.63
10587;BME280;5341;47.606;7.576;2022-08-19T08:14:07;98634.88;;;22.95;67.69
10587;BME280;5341;47.606;7.576;2022-08-19T08:16:37;98630.53;;;22.99;67.39
10587;BME280;5341;47.606;7.576;2022-08-19T08:19:05;98636.00;;;23.04;67.59
10587;BME280;5341;47.606;7.576;2022-08-19T08:21:34;98632.75;;;23.07;67.59
10587;BME280;5341;47.606;7.576;2022-08-19T08:24:02;98643.94;;;23.05;67.64
10587;BME280;5341;47.606;7.576;2022-08-19T08:26:29;98640.94;;;23.07;67.62
10587;BME280;5341;47.606;7.576;2022-08-19T08:28:57;98644.22;;;23.09;67.64
10587;BME280;5341;47.606;7.576;2022-08-19T08:31:24;98639.56;;;23.09;68.21
10587;BME280;5341;47.606;7.576;2022-08-19T08:33:54;98638.47;;;23.05;69.08
10587;BME280;5341;47.606;7.576;2022-08-19T08:36:22;98636.53;;;23.01;69.46
10587;BME280;5341;47.606;7.576;2022-08-19T08:38:50;98646.94;;;23.04;69.32
10587;BME280;5341;47.606;7.576;2022-08-19T08:41:31;98643.88;;;23.00;70.57
10587;BME280;5341;47.606;7.576;2022-08-19T08:44:03;98640.06;;;22.91;71.22
10587;BME280;5341;47.606;7.576;2022-08-19T08:46:43;98646.06;;;22.93;70.39
10587;BME280;5341;47.606;7.576;2022-08-19T08:49:22;98657.25;;;22.97;71.10
10587;BME280;5341;47.606;7.576;2022-08-19T08:51:59;98660.78;;;22.92;71.55
10587;BME280;5341;47.606;7.576;2022-08-19T08:54:34;98670.59;;;22.93;71.22
10587;BME280;5341;47.606;7.576;2022-08-19T08:57:04;98656.97;;;22.98;71.21
10587;BME280;5341;47.606;7.576;2022-08-19T08:59:38;98658.56;;;22.89;71.67
10587;BME280;5341;47.606;7.576;2022-08-19T09:02:07;98667.81;;;22.88;71.53
10587;BME280;5341;47.606;7.576;2022-08-19T09:04:37;98667.31;;;22.91;71.87
10587;BME280;5341;47.606;7.576;2022-08-19T09:07:18;98658.00;;;22.87;72.38
10587;BME280;5341;47.606;7.576;2022-08-19T09:09:51;98666.41;;;22.80;72.25
10587;BME280;5341;47.606;7.576;2022-08-19T09:12:31;98668.38;;;22.85;72.85
10587;BME280;5341;47.606;7.576;2022-08-19T09:15:04;98670.88;;;22.92;72.88
10587;BME280;5341;47.606;7.576;2022-08-19T09:17:35;98665.75;;;23.05;72.98
10587;BME280;5341;47.606;7.576;2022-08-19T09:20:14;98670.72;;;23.19;72.52
10587;BME280;5341;47.606;7.576;2022-08-19T09:22:43;98672.69;;;23.28;72.40
10587;BME280;5341;47.606;7.576;2022-08-19T09:25:14;98676.50;;;23.32;71.16
10587;BME280;5341;47.606;7.576;2022-08-19T09:27:42;98687.19;;;23.44;71.11
10587;BME280;5341;47.606;7.576;2022-08-19T09:30:13;98689.09;;;23.49;69.68
10587;BME280;5341;47.606;7.576;2022-08-19T09:32:42;98684.47;;;23.44;70.16
10587;BME280;5341;47.606;7.576;2022-08-19T09:35:13;98695.66;;;23.48;70.04
10587;BME280;5341;47.606;7.576;2022-08-19T09:37:42;98686.69;;;23.57;69.20
10587;BME280;5341;47.606;7.576;2022-08-19T09:40:11;98685.06;;;23.61;69.31
10587;BME280;5341;47.606;7.576;2022-08-19T09:42:39;98685.06;;;23.61;68.41
10587;BME280;5341;47.606;7.576;2022-08-19T09:45:10;98688.38;;;23.63;68.35
10587;BME280;5341;47.606;7.576;2022-08-19T09:47:38;98699.00;;;23.60;67.75
10587;BME280;5341;47.606;7.576;2022-08-19T09:50:09;98695.72;;;23.58;67.64
10587;BME280;5341;47.606;7.576;2022-08-19T09:52:39;98706.56;;;23.48;67.22
10587;BME280;5341;47.606;7.576;2022-08-19T09:55:09;98701.94;;;23.43;67.43
10587;BME280;5341;47.606;7.576;2022-08-19T09:57:39;98704.94;;;23.47;67.80
10587;BME280;5341;47.606;7.576;2022-08-19T10:00:10;98710.13;;;23.48;68.34
10587;BME280;5341;47.606;7.576;2022-08-19T10:02:37;98700.34;;;23.52;68.18
10587;BME280;5341;47.606;7.576;2022-08-19T10:05:05;98709.88;;;23.55;68.21
10587;BME280;5341;47.606;7.576;2022-08-19T10:07:54;98709.63;;;23.56;68.51
10587;BME280;5341;47.606;7.576;2022-08-19T10:10:28;98706.38;;;23.59;68.47
10587;BME280;5341;47.606;7.576;2022-08-19T10:12:56;98707.50;;;23.63;68.07
10587;BME280;5341;47.606;7.576;2022-08-19T10:15:23;98714.31;;;23.66;68.02
10587;BME280;5341;47.606;7.576;2022-08-19T10:17:52;98717.31;;;23.64;68.10
10587;BME280;5341;47.606;7.576;2022-08-19T10:20:21;98711.06;;;23.64;68.33
10587;BME280;5341;47.606;7.576;2022-08-19T10:22:50;98706.91;;;23.61;68.50
10587;BME280;5341;47.606;7.576;2022-08-19T10:25:20;98705.28;;;23.60;68.68
10587;BME280;5341;47.606;7.576;2022-08-19T10:27:47;98711.59;;;23.66;68.46
10587;BME280;5341;47.606;7.576;2022-08-19T10:30:15;98711.06;;;23.64;67.89
10587;BME280;5341;47.606;7.576;2022-08-19T10:32:42;98709.84;;;23.50;67.98
10587;BME280;5341;47.606;7.576;2022-08-19T10:35:12;98713.06;;;23.31;68.34
10587;BME280;5341;47.606;7.576;2022-08-19T10:37:40;98706.25;;;23.34;68.78
10587;BME280;5341;47.606;7.576;2022-08-19T10:40:08;98703.56;;;23.39;69.07
10587;BME280;5341;47.606;7.576;2022-08-19T10:42:38;98707.66;;;23.47;69.27
10587;BME280;5341;47.606;7.576;2022-08-19T10:45:07;98706.06;;;23.56;69.05
10587;BME280;5341;47.606;7.576;2022-08-19T10:47:35;98709.13;;;23.64;68.89
10587;BME280;5341;47.606;7.576;2022-08-19T10:50:04;98706.94;;;23.72;68.96
10587;BME280;5341;47.606;7.576;2022-08-19T10:52:49;98697.97;;;23.76;68.71
10587;BME280;5341;47.606;7.576;2022-08-19T10:55:19;98704.53;;;23.80;68.20
10587;BME280;5341;47.606;7.576;2022-08-19T10:58:10;98697.97;;;23.76;68.02
10587;BME280;5341;47.606;7.576;2022-08-19T11:00:38;98697.69;;;23.78;67.60
10587;BME280;5341;47.606;7.576;2022-08-19T11:03:06;98689.22;;;23.74;67.90
10587;BME280;5341;47.606;7.576;2022-08-19T11:05:33;98698.22;;;23.70;67.89
10587;BME280;5341;47.606;7.576;2022-08-19T11:08:01;98696.56;;;23.74;67.99
10587;BME280;5341;47.606;7.576;2022-08-19T11:10:29;98698.78;;;23.77;67.95
10587;BME280;5341;47.606;7.576;2022-08-19T11:12:56;98697.44;;;23.79;67.77
10587;BME280;5341;47.606;7.576;2022-08-19T11:15:25;98698.53;;;23.83;67.73
10587;BME280;5341;47.606;7.576;2022-08-19T11:17:54;98700.97;;;23.80;67.65
10587;BME280;5341;47.606;7.576;2022-08-19T11:20:22;98700.16;;;23.79;67.82
10587;BME280;5341;47.606;7.576;2022-08-19T11:22:52;98700.16;;;23.79;67.65
10587;BME280;5341;47.606;7.576;2022-08-19T11:25:20;98696.34;;;23.75;67.57
10587;BME280;5341;47.606;7.576;2022-08-19T11:27:48;98706.44;;;23.80;67.45
10587;BME280;5341;47.606;7.576;2022-08-19T11:30:17;98705.63;;;23.84;67.21
10587;BME280;5341;47.606;7.576;2022-08-19T11:32:46;98700.19;;;23.89;67.48
10587;BME280;5341;47.606;7.576;2022-08-19T11:35:14;98708.09;;;23.91;67.38
10587;BME280;5341;47.606;7.576;2022-08-19T11:37:41;98703.19;;;23.93;67.44
10587;BME280;5341;47.606;7.576;2022-08-19T11:40:10;98703.72;;;23.95;67.97
10587;BME280;5341;47.606;7.576;2022-08-19T11:42:38;98700.75;;;24.02;67.90
10587;BME280;5341;47.606;7.576;2022-08-19T11:45:26;98700.47;;;24.08;68.50
10587;BME280;5341;47.606;7.576;2022-08-19T11:47:56;98696.94;;;24.13;67.64
10587;BME280;5341;47.606;7.576;2022-08-19T11:50:23;98705.66;;;24.20;67.72
10587;BME280;5341;47.606;7.576;2022-08-19T11:52:54;98706.25;;;24.27;67.73
10587;BME280;5341;47.606;7.576;2022-08-19T11:55:22;98708.69;;;24.29;67.27
10587;BME280;5341;47.606;7.576;2022-08-19T11:57:49;98714.16;;;24.29;67.45
10587;BME280;5341;47.606;7.576;2022-08-19T12:00:17;98710.38;;;24.40;67.69
10587;BME280;5341;47.606;7.576;2022-08-19T12:02:45;98708.47;;;24.50;68.49
10587;BME280;5341;47.606;7.576;2022-08-19T12:05:14;98702.97;;;24.66;68.00
10587;BME280;5341;47.606;7.576;2022-08-19T12:07:41;98699.41;;;24.75;66.65
10587;BME280;5341;47.606;7.576;2022-08-19T12:10:10;98699.91;;;24.82;66.05
10587;BME280;5341;47.606;7.576;2022-08-19T12:12:38;98702.38;;;24.94;66.34
10587;BME280;5341;47.606;7.576;2022-08-19T12:15:10;98702.91;;;25.06;65.86
10587;BME280;5341;47.606;7.576;2022-08-19T12:17:39;98697.41;;;25.17;65.11
10587;BME280;5341;47.606;7.576;2022-08-19T12:20:09;98689.72;;;25.24;64.54
10587;BME280;5341;47.606;7.576;2022-08-19T12:22:38;98699.25;;;25.36;64.07
10587;BME280;5341;47.606;7.576;2022-08-19T12:25:10;98695.72;;;25.36;62.39
10587;BME280;5341;47.606;7.576;2022-08-19T12:27:41;98696.53;;;25.31;63.11
10587;BME280;5341;47.606;7.576;2022-08-19T12:30:11;98701.44;;;25.39;63.23
10587;BME280;5341;47.606;7.576;2022-08-19T12:32:40;98707.72;;;25.45;62.68
10587;BME280;5341;47.606;7.576;2022-08-19T12:35:08;98700.56;;;25.49;63.07
10587;BME280;5341;47.606;7.576;2022-08-19T12:37:39;98712.34;;;25.50;63.34
10587;BME280;5341;47.606;7.576;2022-08-19T12:40:08;98711.00;;;25.47;62.66
10587;BME280;5341;47.606;7.576;2022-08-19T12:42:37;98698.97;;;25.38;62.72
10587;BME280;5341;47.606;7.576;2022-08-19T12:45:09;98701.78;;;25.18;62.59
10587;BME280;5341;47.606;7.576;2022-08-19T12:47:36;98704.81;;;25.06;63.55
10587;BME280;5341;47.606;7.576;2022-08-19T12:50:05;98710.06;;;24.87;62.64
10587;BME280;5341;47.606;7.576;2022-08-19T12:52:35;98714.41;;;24.83;63.08
10587;BME280;5341;47.606;7.576;2022-08-19T12:55:06;98711.69;;;24.78;62.65
10587;BME280;5341;47.606;7.576;2022-08-19T12:57:35;98707.34;;;24.72;62.82
10587;BME280;5341;47.606;7.576;2022-08-19T13:00:06;98718.56;;;24.55;63.80
10587;BME280;5341;47.606;7.576;2022-08-19T13:02:36;98723.47;;;24.33;65.14
10587;BME280;5341;47.606;7.576;2022-08-19T13:05:05;98721.56;;;24.23;65.44
10587;BME280;5341;47.606;7.576;2022-08-19T13:07:37;98721.53;;;24.13;65.45
10587;BME280;5341;47.606;7.576;2022-08-19T13:10:09;98720.16;;;24.15;65.67
10587;BME280;5341;47.606;7.576;2022-08-19T13:12:38;98719.88;;;24.22;65.48
10587;BME280;5341;47.606;7.576;2022-08-19T13:15:13;98723.44;;;24.27;65.31
10587;BME280;5341;47.606;7.576;2022-08-19T13:17:50;98715.00;;;24.34;65.38
10587;BME280;5341;47.606;7.576;2022-08-19T13:20:19;98720.50;;;24.39;65.52
10587;BME280;5341;47.606;7.576;2022-08-19T13:22:48;98706.00;;;24.44;65.25
10587;BME280;5341;47.606;7.576;2022-08-19T13:25:17;98708.72;;;24.49;64.96